sensor_id;sensor_type;location;lat;lon;timestamp;P1;durP1;ratioP1;P2;durP2;ratioP2
12445;SDS011;6287;50.984;7.022;2023-08-01T00:00:16;1.20;;;0.80;;
12445;SDS011;6287;50.984;7.022;2023-08-01T00:02:42;2.37;;;0.87;;
12445;SDS011;6287;50.984;7.022;2023-08-01T00:05:10;0.93;;;0.93;;
12445;SDS011;6287;50.984;7.022;2023-08-01T00:07:38;0.73;;;0.73;;
12445;SDS011;6287;50.984;7.022;2023-08-01T00:10:04;0.90;;;0.87;;
12445;SDS011;6287;50.984;7.022;2023-08-01T00:12:30;0.90;;;0.80;;
12445;SDS011;6287;50.984;7.022;2023-08-01T00:14:58;1.13;;;0.80;;
12445;SDS011;6287;50.984;7.022;2023-08-01T00:17:26;0.67;;;0.67;;
12445;SDS011;6287;50.984;7.022;2023-08-01T00:19:56;1.67;;;0.87;;
12445;SDS011;6287;50.984;7.022;2023-08-01T00:22:22;0.90;;;0.90;;
12445;SDS011;6287;50.984;7.022;2023-08-01T00:24:47;1.10;;;1.10;;
12445;SDS011;6287;50.984;7.022;2023-08-01T00:27:13;2.53;;;0.97;;
12445;SDS011;6287;50.984;7.022;2023-08-01T00:29:39;0.87;;;0.83;;
12445;SDS011;6287;50.984;7.022;2023-08-01T00:32:07;1.00;;;0.90;;
12445;SDS011;6287;50.984;7.022;2023-08-01T00:34:33;0.70;;;0.68;;
12445;SDS011;6287;50.984;7.022;2023-08-01T00:37:00;1.53;;;0.87;;
12445;SDS011;6287;50.984;7.022;2023-08-01T00:39:26;1.58;;;0.70;;
12445;SDS011;6287;50.984;7.022;2023-08-01T00:41:54;0.73;;;0.73;;
12445;SDS011;6287;50.984;7.022;2023-08-01T00:44:19;1.42;;;0.95;;
12445;SDS011;6287;50.984;7.022;2023-08-01T00:46:45;1.67;;;1.03;;
12445;SDS011;6287;50.984;7.022;2023-08-01T00:49:13;2.30;;;0.83;;
12445;SDS011;6287;50.984;7.022;2023-08-01T00:51:39;0.70;;;0.70;;
12445;SDS011;6287;50.984;7.022;2023-08-01T00:54:05;0.70;;;0.70;;
12445;SDS011;6287;50.984;7.022;2023-08-01T00:56:31;1.77;;;0.70;;
12445;SDS011;6287;50.984;7.022;2023-08-01T00:59:00;1.48;;;0.70;;
12445;SDS011;6287;50.984;7.022;2023-08-01T01:01:26;0.70;;;0.70;;
12445;SDS011;6287;50.984;7.022;2023-08-01T01:03:51;0.80;;;0.80;;
12445;SDS011;6287;50.984;7.022;2023-08-01T01:06:20;1.17;;;0.67;;
12445;SDS011;6287;50.984;7.022;2023-08-01T01:08:57;0.80;;;0.80;;
12445;SDS011;6287;50.984;7.022;2023-08-01T01:11:22;0.50;;;0.50;;
12445;SDS011;6287;50.984;7.022;2023-08-01T01:13:48;0.50;;;0.50;;
12445;SDS011;6287;50.984;7.022;2023-08-01T01:16:19;0.80;;;0.80;;
12445;SDS011;6287;50.984;7.022;2023-08-01T01:18:45;0.70;;;0.70;;
12445;SDS011;6287;50.984;7.022;2023-08-01T01:21:11;0.60;;;0.60;;
12445;SDS011;6287;50.984;7.022;2023-08-01T01:23:36;0.80;;;0.80;;
12445;SDS011;6287;50.984;7.022;2023-08-01T01:26:03;2.08;;;0.40;;
12445;SDS011;6287;50.984;7.022;2023-08-01T01:28:31;0.65;;;0.40;;
12445;SDS011;6287;50.984;7.022;2023-08-01T01:30:57;0.47;;;0.47;;
12445;SDS011;6287;50.984;7.022;2023-08-01T01:33:26;1.15;;;0.57;;
12445;SDS011;6287;50.984;7.022;2023-08-01T01:35:53;0.50;;;0.50;;
12445;SDS011;6287;50.984;7.022;2023-08-01T01:38:19;0.40;;;0.40;;
12445;SDS011;6287;50.984;7.022;2023-08-01T01:40:47;0.80;;;0.50;;
12445;SDS011;6287;50.984;7.022;2023-08-01T01:43:12;0.20;;;0.20;;
12445;SDS011;6287;50.984;7.022;2023-08-01T01:45:40;0.82;;;0.50;;
12445;SDS011;6287;50.984;7.022;2023-08-01T01:48:06;0.40;;;0.40;;
12445;SDS011;6287;50.984;7.022;2023-08-01T01:50:34;0.30;;;0.30;;
12445;SDS011;6287;50.984;7.022;2023-08-01T01:53:04;0.50;;;0.40;;
12445;SDS011;6287;50.984;7.022;2023-08-01T01:55:32;0.33;;;0.33;;
12445;SDS011;6287;50.984;7.022;2023-08-01T01:58:00;1.57;;;0.50;;
12445;SDS011;6287;50.984;7.022;2023-08-01T02:00:26;1.73;;;0.40;;
12445;SDS011;6287;50.984;7.022;2023-08-01T02:02:57;0.73;;;0.50;;
12445;SDS011;6287;50.984;7.022;2023-08-01T02:05:28;0.47;;;0.47;;
12445;SDS011;6287;50.984;7.022;2023-08-01T02:07:54;0.37;;;0.37;;
12445;SDS011;6287;50.984;7.022;2023-08-01T02:10:19;0.60;;;0.60;;
12445;SDS011;6287;50.984;7.022;2023-08-01T02:12:45;0.43;;;0.43;;
12445;SDS011;6287;50.984;7.022;2023-08-01T02:15:12;0.53;;;0.53;;
12445;SDS011;6287;50.984;7.022;2023-08-01T02:17:41;0.70;;;0.70;;
12445;SDS011;6287;50.984;7.022;2023-08-01T02:20:09;0.57;;;0.57;;
12445;SDS011;6287;50.984;7.022;2023-08-01T02:22:34;1.37;;;0.67;;
12445;SDS011;6287;50.984;7.022;2023-08-01T02:25:02;0.57;;;0.57;;
12445;SDS011;6287;50.984;7.022;2023-08-01T02:27:28;0.50;;;0.40;;
12445;SDS011;6287;50.984;7.022;2023-08-01T02:29:58;0.50;;;0.50;;
12445;SDS011;6287;50.984;7.022;2023-08-01T02:32:26;0.63;;;0.50;;
12445;SDS011;6287;50.984;7.022;2023-08-01T02:34:52;0.47;;;0.47;;
12445;SDS011;6287;50.984;7.022;2023-08-01T02:37:19;0.80;;;0.80;;
12445;SDS011;6287;50.984;7.022;2023-08-01T02:39:47;1.00;;;0.57;;
12445;SDS011;6287;50.984;7.022;2023-08-01T02:42:13;0.60;;;0.60;;
12445;SDS011;6287;50.984;7.022;2023-08-01T02:44:43;0.60;;;0.60;;
12445;SDS011;6287;50.984;7.022;2023-08-01T02:47:11;0.57;;;0.57;;
12445;SDS011;6287;50.984;7.022;2023-08-01T02:49:37;2.80;;;0.60;;
12445;SDS011;6287;50.984;7.022;2023-08-01T02:52:02;1.53;;;0.57;;
12445;SDS011;6287;50.984;7.022;2023-08-01T02:54:28;0.40;;;0.40;;
12445;SDS011;6287;50.984;7.022;2023-08-01T02:56:58;0.53;;;0.53;;
12445;SDS011;6287;50.984;7.022;2023-08-01T02:59:24;0.50;;;0.50;;
12445;SDS011;6287;50.984;7.022;2023-08-01T03:01:50;0.50;;;0.50;;
12445;SDS011;6287;50.984;7.022;2023-08-01T03:04:18;0.57;;;0.57;;
12445;SDS011;6287;50.984;7.022;2023-08-01T03:06:48;0.50;;;0.50;;
12445;SDS011;6287;50.984;7.022;2023-08-01T03:09:16;2.90;;;0.70;;
12445;SDS011;6287;50.984;7.022;2023-08-01T03:11:44;0.63;;;0.50;;
12445;SDS011;6287;50.984;7.022;2023-08-01T03:14:12;0.30;;;0.30;;
12445;SDS011;6287;50.984;7.022;2023-08-01T03:16:44;0.77;;;0.60;;
12445;SDS011;6287;50.984;7.022;2023-08-01T03:19:09;1.00;;;0.80;;
12445;SDS011;6287;50.984;7.022;2023-08-01T03:21:38;0.90;;;0.90;;
12445;SDS011;6287;50.984;7.022;2023-08-01T03:24:07;1.47;;;0.80;;
12445;SDS011;6287;50.984;7.022;2023-08-01T03:26:35;1.00;;;1.00;;
12445;SDS011;6287;50.984;7.022;2023-08-01T03:29:01;1.00;;;0.90;;
12445;SDS011;6287;50.984;7.022;2023-08-01T03:31:27;2.87;;;1.10;;
12445;SDS011;6287;50.984;7.022;2023-08-01T03:33:56;1.07;;;1.00;;
12445;SDS011;6287;50.984;7.022;2023-08-01T03:36:26;1.63;;;1.10;;
12445;SDS011;6287;50.984;7.022;2023-08-01T03:38:54;1.63;;;0.90;;
12445;SDS011;6287;50.984;7.022;2023-08-01T03:41:22;1.47;;;1.37;;
12445;SDS011;6287;50.984;7.022;2023-08-01T03:43:47;1.13;;;1.10;;
12445;SDS011;6287;50.984;7.022;2023-08-01T03:46:13;1.40;;;1.30;;
12445;SDS011;6287;50.984;7.022;2023-08-01T03:48:46;1.30;;;1.20;;
12445;SDS011;6287;50.984;7.022;2023-08-01T03:51:12;2.73;;;1.83;;
12445;SDS011;6287;50.984;7.022;2023-08-01T03:53:40;2.17;;;2.00;;
12445;SDS011;6287;50.984;7.022;2023-08-01T03:56:11;2.23;;;1.90;;
12445;SDS011;6287;50.984;7.022;2023-08-01T03:58:39;2.10;;;1.90;;
12445;SDS011;6287;50.984;7.022;2023-08-01T04:01:04;2.53;;;2.07;;
12445;SDS011;6287;50.984;7.022;2023-08-01T04:03:31;3.63;;;2.77;;
12445;SDS011;6287;50.984;7.022;2023-08-01T04:05:57;4.43;;;3.10;;
12445;SDS011;6287;50.984;7.022;2023-08-01T04:08:26;3.47;;;3.17;;
12445;SDS011;6287;50.984;7.022;2023-08-01T04:10:54;4.20;;;3.13;;
12445;SDS011;6287;50.984;7.022;2023-08-01T04:13:19;8.43;;;4.43;;
12445;SDS011;6287;50.984;7.022;2023-08-01T04:15:45;5.00;;;3.83;;
12445;SDS011;6287;50.984;7.022;2023-08-01T04:18:10;6.10;;;4.20;;
12445;SDS011;6287;50.984;7.022;2023-08-01T04:20:36;6.37;;;4.73;;
12445;SDS011;6287;50.984;7.022;2023-08-01T04:23:06;4.80;;;4.03;;
12445;SDS011;6287;50.984;7.022;2023-08-01T04:25:34;6.57;;;3.93;;
12445;SDS011;6287;50.984;7.022;2023-08-01T04:27:59;6.40;;;4.80;;
12445;SDS011;6287;50.984;7.022;2023-08-01T04:30:25;5.37;;;4.80;;
12445;SDS011;6287;50.984;7.022;2023-08-01T04:32:50;5.10;;;4.37;;
12445;SDS011;6287;50.984;7.022;2023-08-01T04:35:16;5.37;;;4.73;;
12445;SDS011;6287;50.984;7.022;2023-08-01T04:37:46;8.33;;;4.77;;
12445;SDS011;6287;50.984;7.022;2023-08-01T04:40:12;6.60;;;4.60;;
12445;SDS011;6287;50.984;7.022;2023-08-01T04:42:38;8.67;;;5.00;;
12445;SDS011;6287;50.984;7.022;2023-08-01T04:45:04;6.53;;;4.30;;
12445;SDS011;6287;50.984;7.022;2023-08-01T04:47:34;6.30;;;4.50;;
12445;SDS011;6287;50.984;7.022;2023-08-01T04:50:00;6.37;;;4.70;;
12445;SDS011;6287;50.984;7.022;2023-08-01T04:52:27;6.67;;;5.03;;
12445;SDS011;6287;50.984;7.022;2023-08-01T04:54:55;6.17;;;4.80;;
12445;SDS011;6287;50.984;7.022;2023-08-01T04:57:23;11.07;;;5.00;;
12445;SDS011;6287;50.984;7.022;2023-08-01T04:59:48;6.43;;;4.77;;
12445;SDS011;6287;50.984;7.022;2023-08-01T05:02:16;6.47;;;4.73;;
12445;SDS011;6287;50.984;7.022;2023-08-01T05:04:42;7.23;;;5.10;;
12445;SDS011;6287;50.984;7.022;2023-08-01T05:07:08;6.20;;;5.03;;
12445;SDS011;6287;50.984;7.022;2023-08-01T05:09:36;8.17;;;4.77;;
12445;SDS011;6287;50.984;7.022;2023-08-01T05:12:02;4.90;;;3.87;;
12445;SDS011;6287;50.984;7.022;2023-08-01T05:14:27;6.70;;;4.00;;
12445;SDS011;6287;50.984;7.022;2023-08-01T05:16:53;5.53;;;4.20;;
12445;SDS011;6287;50.984;7.022;2023-08-01T05:19:19;4.97;;;3.97;;
12445;SDS011;6287;50.984;7.022;2023-08-01T05:21:44;6.13;;;4.10;;
12445;SDS011;6287;50.984;7.022;2023-08-01T05:24:12;5.00;;;4.13;;
12445;SDS011;6287;50.984;7.022;2023-08-01T05:26:38;5.77;;;4.17;;
12445;SDS011;6287;50.984;7.022;2023-08-01T05:29:03;5.07;;;3.70;;
12445;SDS011;6287;50.984;7.022;2023-08-01T05:31:29;6.07;;;3.90;;
12445;SDS011;6287;50.984;7.022;2023-08-01T05:33:54;6.80;;;4.37;;
12445;SDS011;6287;50.984;7.022;2023-08-01T05:36:20;5.73;;;3.93;;
12445;SDS011;6287;50.984;7.022;2023-08-01T05:38:45;6.67;;;3.90;;
12445;SDS011;6287;50.984;7.022;2023-08-01T05:41:11;7.90;;;4.30;;
12445;SDS011;6287;50.984;7.022;2023-08-01T05:43:39;8.53;;;4.23;;
12445;SDS011;6287;50.984;7.022;2023-08-01T05:46:04;5.97;;;3.60;;
12445;SDS011;6287;50.984;7.022;2023-08-01T05:48:31;5.37;;;3.90;;
12445;SDS011;6287;50.984;7.022;2023-08-01T05:50:57;5.77;;;4.00;;
12445;SDS011;6287;50.984;7.022;2023-08-01T05:53:23;5.50;;;3.57;;
12445;SDS011;6287;50.984;7.022;2023-08-01T05:55:49;5.37;;;4.07;;
12445;SDS011;6287;50.984;7.022;2023-08-01T05:58:17;7.63;;;3.87;;
12445;SDS011;6287;50.984;7.022;2023-08-01T06:00:45;5.40;;;3.23;;
12445;SDS011;6287;50.984;7.022;2023-08-01T06:03:18;6.23;;;3.40;;
12445;SDS011;6287;50.984;7.022;2023-08-01T06:05:43;4.90;;;3.43;;
12445;SDS011;6287;50.984;7.022;2023-08-01T06:08:09;4.80;;;3.23;;
12445;SDS011;6287;50.984;7.022;2023-08-01T06:10:35;8.77;;;3.80;;
12445;SDS011;6287;50.984;7.022;2023-08-01T06:13:03;7.73;;;3.00;;
12445;SDS011;6287;50.984;7.022;2023-08-01T06:15:31;6.80;;;3.43;;
12445;SDS011;6287;50.984;7.022;2023-08-01T06:17:56;5.07;;;2.90;;
12445;SDS011;6287;50.984;7.022;2023-08-01T06:20:24;4.07;;;3.10;;
12445;SDS011;6287;50.984;7.022;2023-08-01T06:22:57;3.53;;;2.90;;
12445;SDS011;6287;50.984;7.022;2023-08-01T06:25:25;5.23;;;3.20;;
12445;SDS011;6287;50.984;7.022;2023-08-01T06:27:51;3.93;;;3.50;;
12445;SDS011;6287;50.984;7.022;2023-08-01T06:30:18;3.43;;;3.13;;
12445;SDS011;6287;50.984;7.022;2023-08-01T06:32:46;3.37;;;3.00;;
12445;SDS011;6287;50.984;7.022;2023-08-01T06:35:14;5.40;;;3.50;;
12445;SDS011;6287;50.984;7.022;2023-08-01T06:37:44;5.33;;;3.30;;
12445;SDS011;6287;50.984;7.022;2023-08-01T06:40:12;3.97;;;3.20;;
12445;SDS011;6287;50.984;7.022;2023-08-01T06:42:40;5.10;;;3.30;;
12445;SDS011;6287;50.984;7.022;2023-08-01T06:45:08;7.37;;;3.30;;
12445;SDS011;6287;50.984;7.022;2023-08-01T06:47:36;5.33;;;3.10;;
12445;SDS011;6287;50.984;7.022;2023-08-01T06:50:04;5.23;;;3.37;;
12445;SDS011;6287;50.984;7.022;2023-08-01T06:52:31;4.53;;;3.27;;
12445;SDS011;6287;50.984;7.022;2023-08-01T06:54:58;4.93;;;3.07;;
12445;SDS011;6287;50.984;7.022;2023-08-01T06:57:24;4.63;;;3.30;;
12445;SDS011;6287;50.984;7.022;2023-08-01T06:59:52;3.25;;;2.80;;
12445;SDS011;6287;50.984;7.022;2023-08-01T07:02:22;4.90;;;3.50;;
12445;SDS011;6287;50.984;7.022;2023-08-01T07:04:50;6.13;;;2.37;;
12445;SDS011;6287;50.984;7.022;2023-08-01T07:07:18;4.30;;;3.00;;
12445;SDS011;6287;50.984;7.022;2023-08-01T07:09:46;6.17;;;3.00;;
12445;SDS011;6287;50.984;7.022;2023-08-01T07:12:14;3.88;;;2.60;;
12445;SDS011;6287;50.984;7.022;2023-08-01T07:14:41;5.30;;;3.07;;
12445;SDS011;6287;50.984;7.022;2023-08-01T07:17:12;5.00;;;3.08;;
12445;SDS011;6287;50.984;7.022;2023-08-01T07:19:40;4.90;;;3.10;;
12445;SDS011;6287;50.984;7.022;2023-08-01T07:22:08;4.57;;;3.00;;
12445;SDS011;6287;50.984;7.022;2023-08-01T07:24:34;7.73;;;3.10;;
12445;SDS011;6287;50.984;7.022;2023-08-01T07:26:59;6.07;;;3.50;;
12445;SDS011;6287;50.984;7.022;2023-08-01T07:29:25;5.63;;;3.20;;
12445;SDS011;6287;50.984;7.022;2023-08-01T07:31:51;3.27;;;2.90;;
12445;SDS011;6287;50.984;7.022;2023-08-01T07:34:18;5.37;;;3.40;;
12445;SDS011;6287;50.984;7.022;2023-08-01T07:36:47;7.47;;;3.20;;
12445;SDS011;6287;50.984;7.022;2023-08-01T07:39:14;4.57;;;3.37;;
12445;SDS011;6287;50.984;7.022;2023-08-01T07:41:40;6.68;;;3.63;;
12445;SDS011;6287;50.984;7.022;2023-08-01T07:44:11;3.50;;;2.90;;
12445;SDS011;6287;50.984;7.022;2023-08-01T07:46:44;4.22;;;3.00;;
12445;SDS011;6287;50.984;7.022;2023-08-01T07:49:16;6.50;;;3.05;;
12445;SDS011;6287;50.984;7.022;2023-08-01T07:51:41;6.18;;;3.15;;
12445;SDS011;6287;50.984;7.022;2023-08-01T07:54:10;3.55;;;2.63;;
12445;SDS011;6287;50.984;7.022;2023-08-01T07:56:38;4.93;;;3.13;;
12445;SDS011;6287;50.984;7.022;2023-08-01T07:59:05;4.97;;;2.65;;
12445;SDS011;6287;50.984;7.022;2023-08-01T08:01:31;2.95;;;2.63;;
12445;SDS011;6287;50.984;7.022;2023-08-01T08:03:57;5.30;;;3.05;;
12445;SDS011;6287;50.984;7.022;2023-08-01T08:06:25;4.60;;;2.88;;
12445;SDS011;6287;50.984;7.022;2023-08-01T08:08:50;6.07;;;3.22;;
12445;SDS011;6287;50.984;7.022;2023-08-01T08:11:18;5.75;;;2.88;;
12445;SDS011;6287;50.984;7.022;2023-08-01T08:13:44;5.00;;;3.10;;
12445;SDS011;6287;50.984;7.022;2023-08-01T08:16:09;3.83;;;2.50;;
12445;SDS011;6287;50.984;7.022;2023-08-01T08:18:35;5.63;;;2.88;;
12445;SDS011;6287;50.984;7.022;2023-08-01T08:21:03;3.33;;;2.63;;
12445;SDS011;6287;50.984;7.022;2023-08-01T08:23:31;2.75;;;2.33;;
12445;SDS011;6287;50.984;7.022;2023-08-01T08:25:56;4.07;;;2.65;;
12445;SDS011;6287;50.984;7.022;2023-08-01T08:28:29;4.88;;;2.70;;
12445;SDS011;6287;50.984;7.022;2023-08-01T08:30:59;3.80;;;2.50;;
12445;SDS011;6287;50.984;7.022;2023-08-01T08:33:25;7.70;;;2.72;;
12445;SDS011;6287;50.984;7.022;2023-08-01T08:35:53;4.90;;;2.92;;
12445;SDS011;6287;50.984;7.022;2023-08-01T08:38:19;4.90;;;2.15;;
12445;SDS011;6287;50.984;7.022;2023-08-01T08:43:36;5.20;;;2.92;;
12445;SDS011;6287;50.984;7.022;2023-08-01T08:46:04;4.43;;;2.60;;
12445;SDS011;6287;50.984;7.022;2023-08-01T08:48:30;3.13;;;2.38;;
12445;SDS011;6287;50.984;7.022;2023-08-01T08:50:57;3.65;;;2.50;;
12445;SDS011;6287;50.984;7.022;2023-08-01T08:53:26;3.58;;;2.53;;
12445;SDS011;6287;50.984;7.022;2023-08-01T08:55:55;3.72;;;2.15;;
12445;SDS011;6287;50.984;7.022;2023-08-01T08:58:21;5.32;;;2.55;;
12445;SDS011;6287;50.984;7.022;2023-08-01T09:00:50;6.20;;;2.45;;
12445;SDS011;6287;50.984;7.022;2023-08-01T09:03:18;5.47;;;2.42;;
12445;SDS011;6287;50.984;7.022;2023-08-01T09:05:50;3.05;;;2.67;;
12445;SDS011;6287;50.984;7.022;2023-08-01T09:08:27;4.18;;;2.58;;
12445;SDS011;6287;50.984;7.022;2023-08-01T09:10:59;3.63;;;2.55;;
12445;SDS011;6287;50.984;7.022;2023-08-01T09:13:26;3.05;;;2.28;;
12445;SDS011;6287;50.984;7.022;2023-08-01T09:15:54;2.78;;;2.40;;
12445;SDS011;6287;50.984;7.022;2023-08-01T09:18:24;5.55;;;2.50;;
12445;SDS011;6287;50.984;7.022;2023-08-01T09:20:49;4.13;;;2.38;;
12445;SDS011;6287;50.984;7.022;2023-08-01T09:23:17;3.45;;;2.00;;
12445;SDS011;6287;50.984;7.022;2023-08-01T09:25:48;2.97;;;2.05;;
12445;SDS011;6287;50.984;7.022;2023-08-01T09:30:49;2.65;;;2.10;;
12445;SDS011;6287;50.984;7.022;2023-08-01T09:33:17;2.75;;;2.10;;
12445;SDS011;6287;50.984;7.022;2023-08-01T09:35:50;3.45;;;2.08;;
12445;SDS011;6287;50.984;7.022;2023-08-01T09:38:21;3.70;;;1.80;;
12445;SDS011;6287;50.984;7.022;2023-08-01T09:40:48;2.88;;;2.00;;
12445;SDS011;6287;50.984;7.022;2023-08-01T09:43:16;2.58;;;1.98;;
12445;SDS011;6287;50.984;7.022;2023-08-01T09:45:53;2.70;;;2.08;;
12445;SDS011;6287;50.984;7.022;2023-08-01T09:48:25;3.08;;;2.00;;
12445;SDS011;6287;50.984;7.022;2023-08-01T09:51:10;3.10;;;1.90;;
12445;SDS011;6287;50.984;7.022;2023-08-01T09:53:58;2.60;;;1.95;;
12445;SDS011;6287;50.984;7.022;2023-08-01T09:56:26;3.83;;;2.17;;
12445;SDS011;6287;50.984;7.022;2023-08-01T09:58:53;2.72;;;2.13;;
12445;SDS011;6287;50.984;7.022;2023-08-01T10:01:22;2.55;;;2.03;;
12445;SDS011;6287;50.984;7.022;2023-08-01T10:03:49;2.17;;;1.73;;
12445;SDS011;6287;50.984;7.022;2023-08-01T10:06:22;2.33;;;1.95;;
12445;SDS011;6287;50.984;7.022;2023-08-01T10:08:56;2.15;;;1.85;;
12445;SDS011;6287;50.984;7.022;2023-08-01T10:11:25;5.57;;;1.92;;
12445;SDS011;6287;50.984;7.022;2023-08-01T10:13:52;2.78;;;1.90;;
12445;SDS011;6287;50.984;7.022;2023-08-01T10:16:18;3.58;;;2.25;;
12445;SDS011;6287;50.984;7.022;2023-08-01T10:18:46;1.95;;;1.75;;
12445;SDS011;6287;50.984;7.022;2023-08-01T10:21:12;3.65;;;2.25;;
12445;SDS011;6287;50.984;7.022;2023-08-01T10:23:40;3.80;;;1.77;;
12445;SDS011;6287;50.984;7.022;2023-08-01T10:26:10;2.92;;;1.98;;
12445;SDS011;6287;50.984;7.022;2023-08-01T10:28:37;2.65;;;1.70;;
12445;SDS011;6287;50.984;7.022;2023-08-01T10:31:11;3.90;;;1.80;;
12445;SDS011;6287;50.984;7.022;2023-08-01T10:33:39;3.28;;;1.80;;
12445;SDS011;6287;50.984;7.022;2023-08-01T10:36:16;2.75;;;1.90;;
12445;SDS011;6287;50.984;7.022;2023-08-01T10:38:50;2.92;;;1.65;;
12445;SDS011;6287;50.984;7.022;2023-08-01T10:41:20;4.00;;;1.90;;
12445;SDS011;6287;50.984;7.022;2023-08-01T10:43:49;2.75;;;1.65;;
12445;SDS011;6287;50.984;7.022;2023-08-01T10:46:17;3.40;;;1.80;;
12445;SDS011;6287;50.984;7.022;2023-08-01T10:48:49;2.75;;;1.73;;
12445;SDS011;6287;50.984;7.022;2023-08-01T10:51:17;3.25;;;1.70;;
12445;SDS011;6287;50.984;7.022;2023-08-01T10:53:45;3.58;;;1.90;;
12445;SDS011;6287;50.984;7.022;2023-08-01T10:56:18;1.73;;;1.40;;
12445;SDS011;6287;50.984;7.022;2023-08-01T10:58:45;2.47;;;1.70;;
12445;SDS011;6287;50.984;7.022;2023-08-01T11:01:13;3.58;;;1.85;;
12445;SDS011;6287;50.984;7.022;2023-08-01T11:03:44;2.25;;;1.70;;
12445;SDS011;6287;50.984;7.022;2023-08-01T11:06:10;5.38;;;1.98;;
12445;SDS011;6287;50.984;7.022;2023-08-01T11:08:40;3.50;;;1.80;;
12445;SDS011;6287;50.984;7.022;2023-08-01T11:11:14;1.83;;;1.27;;
12445;SDS011;6287;50.984;7.022;2023-08-01T11:13:41;2.35;;;1.33;;
12445;SDS011;6287;50.984;7.022;2023-08-01T11:16:21;2.17;;;1.60;;
12445;SDS011;6287;50.984;7.022;2023-08-01T11:18:47;1.80;;;1.42;;
12445;SDS011;6287;50.984;7.022;2023-08-01T11:21:26;3.08;;;1.73;;
12445;SDS011;6287;50.984;7.022;2023-08-01T11:23:52;3.72;;;1.55;;
12445;SDS011;6287;50.984;7.022;2023-08-01T11:26:18;2.20;;;1.42;;
12445;SDS011;6287;50.984;7.022;2023-08-01T11:28:43;1.92;;;1.60;;
12445;SDS011;6287;50.984;7.022;2023-08-01T11:31:10;2.78;;;1.30;;
12445;SDS011;6287;50.984;7.022;2023-08-01T11:33:37;3.58;;;1.25;;
12445;SDS011;6287;50.984;7.022;2023-08-01T11:36:03;2.05;;;1.38;;
12445;SDS011;6287;50.984;7.022;2023-08-01T11:38:32;3.78;;;1.38;;
12445;SDS011;6287;50.984;7.022;2023-08-01T11:41:01;1.85;;;1.45;;
12445;SDS011;6287;50.984;7.022;2023-08-01T11:43:39;1.58;;;1.00;;
12445;SDS011;6287;50.984;7.022;2023-08-01T11:46:06;2.10;;;1.20;;
12445;SDS011;6287;50.984;7.022;2023-08-01T11:48:31;1.42;;;1.27;;
12445;SDS011;6287;50.984;7.022;2023-08-01T11:51:00;2.95;;;1.30;;
12445;SDS011;6287;50.984;7.022;2023-08-01T11:53:27;2.03;;;1.33;;
12445;SDS011;6287;50.984;7.022;2023-08-01T11:56:02;2.30;;;1.27;;
12445;SDS011;6287;50.984;7.022;2023-08-01T11:58:29;1.40;;;1.10;;
12445;SDS011;6287;50.984;7.022;2023-08-01T12:01:15;2.30;;;1.48;;
12445;SDS011;6287;50.984;7.022;2023-08-01T12:06:14;1.23;;;1.00;;
12445;SDS011;6287;50.984;7.022;2023-08-01T12:08:43;2.45;;;1.27;;
12445;SDS011;6287;50.984;7.022;2023-08-01T12:11:25;1.45;;;1.35;;
12445;SDS011;6287;50.984;7.022;2023-08-01T12:16:27;3.88;;;1.33;;
12445;SDS011;6287;50.984;7.022;2023-08-01T12:18:55;2.45;;;1.42;;
12445;SDS011;6287;50.984;7.022;2023-08-01T12:21:23;1.92;;;1.15;;
12445;SDS011;6287;50.984;7.022;2023-08-01T12:23:49;1.20;;;1.10;;
12445;SDS011;6287;50.984;7.022;2023-08-01T12:26:17;1.45;;;1.10;;
12445;SDS011;6287;50.984;7.022;2023-08-01T12:28:42;1.85;;;1.10;;
12445;SDS011;6287;50.984;7.022;2023-08-01T12:31:22;4.05;;;1.50;;
12445;SDS011;6287;50.984;7.022;2023-08-01T12:33:48;1.10;;;1.00;;
12445;SDS011;6287;50.984;7.022;2023-08-01T12:36:17;2.70;;;1.15;;
12445;SDS011;6287;50.984;7.022;2023-08-01T12:38:44;2.13;;;1.10;;
12445;SDS011;6287;50.984;7.022;2023-08-01T12:41:11;1.35;;;1.25;;
12445;SDS011;6287;50.984;7.022;2023-08-01T12:43:39;1.45;;;1.05;;
12445;SDS011;6287;50.984;7.022;2023-08-01T12:46:05;1.20;;;1.20;;
12445;SDS011;6287;50.984;7.022;2023-08-01T12:48:30;3.67;;;1.95;;
12445;SDS011;6287;50.984;7.022;2023-08-01T12:50:57;2.63;;;1.98;;
12445;SDS011;6287;50.984;7.022;2023-08-01T12:53:23;3.47;;;2.33;;
12445;SDS011;6287;50.984;7.022;2023-08-01T12:55:49;4.80;;;1.67;;
12445;SDS011;6287;50.984;7.022;2023-08-01T12:58:18;2.95;;;1.92;;
12445;SDS011;6287;50.984;7.022;2023-08-01T13:00:44;2.60;;;2.10;;
12445;SDS011;6287;50.984;7.022;2023-08-01T13:03:11;2.40;;;1.90;;
12445;SDS011;6287;50.984;7.022;2023-08-01T13:05:38;3.83;;;2.60;;
12445;SDS011;6287;50.984;7.022;2023-08-01T13:08:07;6.82;;;2.50;;
12445;SDS011;6287;50.984;7.022;2023-08-01T13:10:39;3.08;;;2.15;;
12445;SDS011;6287;50.984;7.022;2023-08-01T13:13:07;3.33;;;1.83;;
12445;SDS011;6287;50.984;7.022;2023-08-01T13:15:33;3.85;;;2.10;;
12445;SDS011;6287;50.984;7.022;2023-08-01T13:18:03;4.80;;;1.90;;
12445;SDS011;6287;50.984;7.022;2023-08-01T13:20:34;2.42;;;2.15;;
12445;SDS011;6287;50.984;7.022;2023-08-01T13:22:59;2.30;;;1.83;;
12445;SDS011;6287;50.984;7.022;2023-08-01T13:25:25;3.58;;;1.77;;
12445;SDS011;6287;50.984;7.022;2023-08-01T13:27:50;3.30;;;1.58;;
12445;SDS011;6287;50.984;7.022;2023-08-01T13:30:21;2.05;;;1.60;;
12445;SDS011;6287;50.984;7.022;2023-08-01T13:32:46;1.70;;;1.60;;
12445;SDS011;6287;50.984;7.022;2023-08-01T13:35:14;2.08;;;1.70;;
12445;SDS011;6287;50.984;7.022;2023-08-01T13:37:41;2.53;;;1.80;;
12445;SDS011;6287;50.984;7.022;2023-08-01T13:40:16;2.30;;;2.17;;
12445;SDS011;6287;50.984;7.022;2023-08-01T13:42:41;2.92;;;1.75;;
12445;SDS011;6287;50.984;7.022;2023-08-01T13:45:07;2.97;;;1.88;;
12445;SDS011;6287;50.984;7.022;2023-08-01T13:47:33;2.30;;;1.88;;
12445;SDS011;6287;50.984;7.022;2023-08-01T13:50:00;3.92;;;1.80;;
12445;SDS011;6287;50.984;7.022;2023-08-01T13:52:26;2.00;;;1.80;;
12445;SDS011;6287;50.984;7.022;2023-08-01T13:54:54;3.70;;;1.70;;
12445;SDS011;6287;50.984;7.022;2023-08-01T13:57:19;2.15;;;1.92;;
12445;SDS011;6287;50.984;7.022;2023-08-01T13:59:48;2.13;;;1.77;;
12445;SDS011;6287;50.984;7.022;2023-08-01T14:02:14;2.42;;;1.55;;
12445;SDS011;6287;50.984;7.022;2023-08-01T14:04:40;2.42;;;1.60;;
12445;SDS011;6287;50.984;7.022;2023-08-01T14:07:05;1.90;;;1.70;;
12445;SDS011;6287;50.984;7.022;2023-08-01T14:09:36;2.83;;;1.60;;
12445;SDS011;6287;50.984;7.022;2023-08-01T14:12:02;2.35;;;1.60;;
12445;SDS011;6287;50.984;7.022;2023-08-01T14:14:31;2.22;;;1.60;;
12445;SDS011;6287;50.984;7.022;2023-08-01T14:16:56;3.33;;;1.50;;
12445;SDS011;6287;50.984;7.022;2023-08-01T14:19:22;2.33;;;1.65;;
12445;SDS011;6287;50.984;7.022;2023-08-01T14:21:47;2.58;;;1.80;;
12445;SDS011;6287;50.984;7.022;2023-08-01T14:24:17;1.98;;;1.60;;
12445;SDS011;6287;50.984;7.022;2023-08-01T14:26:43;3.72;;;1.70;;
12445;SDS011;6287;50.984;7.022;2023-08-01T14:29:11;2.30;;;2.10;;
12445;SDS011;6287;50.984;7.022;2023-08-01T14:31:36;3.95;;;1.92;;
12445;SDS011;6287;50.984;7.022;2023-08-01T14:34:04;3.75;;;2.50;;
12445;SDS011;6287;50.984;7.022;2023-08-01T14:36:32;3.53;;;2.35;;
12445;SDS011;6287;50.984;7.022;2023-08-01T14:38:57;4.10;;;2.35;;
12445;SDS011;6287;50.984;7.022;2023-08-01T14:41:25;4.50;;;2.58;;
12445;SDS011;6287;50.984;7.022;2023-08-01T14:43:53;4.25;;;2.00;;
12445;SDS011;6287;50.984;7.022;2023-08-01T14:46:18;2.15;;;1.90;;
12445;SDS011;6287;50.984;7.022;2023-08-01T14:48:46;2.00;;;1.80;;
12445;SDS011;6287;50.984;7.022;2023-08-01T14:51:14;3.53;;;1.73;;
12445;SDS011;6287;50.984;7.022;2023-08-01T14:53:39;3.58;;;1.90;;
12445;SDS011;6287;50.984;7.022;2023-08-01T14:56:07;3.00;;;1.50;;
12445;SDS011;6287;50.984;7.022;2023-08-01T14:58:33;5.70;;;1.60;;
12445;SDS011;6287;50.984;7.022;2023-08-01T15:01:04;3.00;;;1.73;;
12445;SDS011;6287;50.984;7.022;2023-08-01T15:03:30;2.20;;;1.30;;
12445;SDS011;6287;50.984;7.022;2023-08-01T15:05:56;2.45;;;1.42;;
12445;SDS011;6287;50.984;7.022;2023-08-01T15:08:29;1.85;;;1.50;;
12445;SDS011;6287;50.984;7.022;2023-08-01T15:10:55;4.93;;;1.95;;
12445;SDS011;6287;50.984;7.022;2023-08-01T15:13:22;1.73;;;1.40;;